sensor_id;sensor_type;location;lat;lon;timestamp;temperature;humidity
54946;DHT22;40846;44.788;20.486;2023-04-03T01:39:49;307.30;2304.00
54946;DHT22;40846;44.788;20.486;2023-04-03T01:47:07;282.20;2278.40
54946;DHT22;40846;44.788;20.486;2023-04-03T01:49:33;281.90;2278.40
54946;DHT22;40846;44.788;20.486;2023-04-03T01:51:59;281.80;2278.40
54946;DHT22;40846;44.788;20.486;2023-04-03T02:09:04;256.80;2252.80
54946;DHT22;40846;44.788;20.486;2023-04-03T02:11:30;256.60;2252.80
54946;DHT22;40846;44.788;20.486;2023-04-03T02:13:55;256.60;2252.80
54946;DHT22;40846;44.788;20.486;2023-04-03T02:16:21;256.60;2252.80
54946;DHT22;40846;44.788;20.486;2023-04-03T02:18:47;256.50;2252.80
54946;DHT22;40846;44.788;20.486;2023-04-03T02:21:13;256.40;2252.80
54946;DHT22;40846;44.788;20.486;2023-04-03T02:23:40;256.40;2252.80
54946;DHT22;40846;44.788;20.486;2023-04-03T02:26:08;256.40;2252.80
54946;DHT22;40846;44.788;20.486;2023-04-03T02:31:00;256.40;2252.80
54946;DHT22;40846;44.788;20.486;2023-04-03T02:33:26;256.20;2252.80
54946;DHT22;40846;44.788;20.486;2023-04-03T02:35:57;256.20;2252.80
54946;DHT22;40846;44.788;20.486;2023-04-03T02:38:25;256.10;2252.80
54946;DHT22;40846;44.788;20.486;2023-04-03T02:40:51;256.10;2252.80
54946;DHT22;40846;44.788;20.486;2023-04-03T02:43:17;256.00;2252.80
54946;DHT22;40846;44.788;20.486;2023-04-03T02:45:43;256.00;2252.80
54946;DHT22;40846;44.788;20.486;2023-04-03T02:48:09;256.10;2252.80
54946;DHT22;40846;44.788;20.486;2023-04-03T02:50:34;256.10;2252.80
54946;DHT22;40846;44.788;20.486;2023-04-03T02:53:00;231.30;2252.80
54946;DHT22;40846;44.788;20.486;2023-04-03T02:55:26;231.30;2252.80
54946;DHT22;40846;44.788;20.486;2023-04-03T03:22:16;231.20;2252.80
54946;DHT22;40846;44.788;20.486;2023-04-03T03:24:42;231.10;2252.80
54946;DHT22;40846;44.788;20.486;2023-04-03T03:27:07;231.10;2252.80
54946;DHT22;40846;44.788;20.486;2023-04-03T03:29:33;231.10;2252.80
54946;DHT22;40846;44.788;20.486;2023-04-03T03:31:59;231.00;2252.80
54946;DHT22;40846;44.788;20.486;2023-04-03T03:34:25;231.00;2252.80
54946;DHT22;40846;44.788;20.486;2023-04-03T03:36:50;231.00;2252.80
54946;DHT22;40846;44.788;20.486;2023-04-03T03:39:16;231.00;2252.80
54946;DHT22;40846;44.788;20.486;2023-04-03T03:41:42;230.90;2252.80
54946;DHT22;40846;44.788;20.486;2023-04-03T03:44:07;231.00;2252.80
54946;DHT22;40846;44.788;20.486;2023-04-03T03:46:33;231.00;2252.80
54946;DHT22;40846;44.788;20.486;2023-04-03T03:48:59;231.00;2252.80
54946;DHT22;40846;44.788;20.486;2023-04-03T03:51:26;231.00;2252.80
54946;DHT22;40846;44.788;20.486;2023-04-03T03:53:51;231.00;2252.80
54946;DHT22;40846;44.788;20.486;2023-04-03T03:56:17;231.00;2252.80
54946;DHT22;40846;44.788;20.486;2023-04-03T03:58:43;231.00;2252.80
54946;DHT22;40846;44.788;20.486;2023-04-03T04:01:10;231.00;2252.80
54946;DHT22;40846;44.788;20.486;2023-04-03T04:03:35;231.10;2252.80
54946;DHT22;40846;44.788;20.486;2023-04-03T04:06:01;231.10;2252.80
54946;DHT22;40846;44.788;20.486;2023-04-03T04:08:27;231.20;2252.80
54946;DHT22;40846;44.788;20.486;2023-04-03T04:10:53;231.30;2252.80
54946;DHT22;40846;44.788;20.486;2023-04-03T04:13:18;231.20;2252.80
54946;DHT22;40846;44.788;20.486;2023-04-03T04:15:44;231.20;2252.80
54946;DHT22;40846;44.788;20.486;2023-04-03T04:18:10;231.00;2252.80
54946;DHT22;40846;44.788;20.486;2023-04-03T04:20:36;230.90;2252.80
54946;DHT22;40846;44.788;20.486;2023-04-03T04:23:01;230.90;2252.80
54946;DHT22;40846;44.788;20.486;2023-04-03T04:25:27;230.90;2252.80
54946;DHT22;40846;44.788;20.486;2023-04-03T04:27:53;230.90;2252.80
54946;DHT22;40846;44.788;20.486;2023-04-03T04:30:18;230.80;2252.80
54946;DHT22;40846;44.788;20.486;2023-04-03T04:32:44;230.90;2252.80
54946;DHT22;40846;44.788;20.486;2023-04-03T04:35:10;230.90;2252.80
54946;DHT22;40846;44.788;20.486;2023-04-03T04:37:35;230.90;2252.80
54946;DHT22;40846;44.788;20.486;2023-04-03T04:40:01;230.80;2252.80
54946;DHT22;40846;44.788;20.486;2023-04-03T04:42:27;230.70;2252.80
54946;DHT22;40846;44.788;20.486;2023-04-03T04:44:53;230.70;2252.80
54946;DHT22;40846;44.788;20.486;2023-04-03T04:47:19;230.80;2252.80
54946;DHT22;40846;44.788;20.486;2023-04-03T04:49:44;230.80;2252.80
54946;DHT22;40846;44.788;20.486;2023-04-03T04:52:12;230.80;2252.80
54946;DHT22;40846;44.788;20.486;2023-04-03T04:54:38;230.90;2252.80
54946;DHT22;40846;44.788;20.486;2023-04-03T04:57:04;230.90;2252.80
54946;DHT22;40846;44.788;20.486;2023-04-03T04:59:29;230.70;2252.80
54946;DHT22;40846;44.788;20.486;2023-04-03T05:01:56;230.80;2252.80
54946;DHT22;40846;44.788;20.486;2023-04-03T05:04:21;230.80;2252.80
54946;DHT22;40846;44.788;20.486;2023-04-03T05:06:47;230.70;2252.80
54946;DHT22;40846;44.788;20.486;2023-04-03T05:09:13;230.70;2252.80
54946;DHT22;40846;44.788;20.486;2023-04-03T05:11:38;230.80;2252.80
54946;DHT22;40846;44.788;20.486;2023-04-03T05:14:04;230.80;2252.80
54946;DHT22;40846;44.788;20.486;2023-04-03T05:16:33;230.80;2252.80
54946;DHT22;40846;44.788;20.486;2023-04-03T05:18:59;230.70;2252.80
54946;DHT22;40846;44.788;20.486;2023-04-03T05:21:25;230.80;2252.80
54946;DHT22;40846;44.788;20.486;2023-04-03T05:23:53;230.80;2252.80
54946;DHT22;40846;44.788;20.486;2023-04-03T05:26:18;230.80;2252.80
54946;DHT22;40846;44.788;20.486;2023-04-03T05:28:44;230.80;2252.80
54946;DHT22;40846;44.788;20.486;2023-04-03T05:31:12;230.70;2252.80
54946;DHT22;40846;44.788;20.486;2023-04-03T05:33:38;230.70;2252.80
54946;DHT22;40846;44.788;20.486;2023-04-03T05:36:05;230.70;2252.80
54946;DHT22;40846;44.788;20.486;2023-04-03T05:38:31;230.80;2252.80
54946;DHT22;40846;44.788;20.486;2023-04-03T05:40:56;230.80;2252.80
54946;DHT22;40846;44.788;20.486;2023-04-03T05:43:22;230.80;2252.80
54946;DHT22;40846;44.788;20.486;2023-04-03T05:45:48;230.80;2252.80
54946;DHT22;40846;44.788;20.486;2023-04-03T05:48:14;230.80;2252.80
54946;DHT22;40846;44.788;20.486;2023-04-03T05:50:39;230.80;2252.80
54946;DHT22;40846;44.788;20.486;2023-04-03T05:53:14;230.80;2252.80
54946;DHT22;40846;44.788;20.486;2023-04-03T05:55:41;230.80;2252.80
54946;DHT22;40846;44.788;20.486;2023-04-03T05:58:06;230.90;2252.80
54946;DHT22;40846;44.788;20.486;2023-04-03T06:00:32;230.90;2252.80
54946;DHT22;40846;44.788;20.486;2023-04-03T06:02:58;230.90;2252.80
54946;DHT22;40846;44.788;20.486;2023-04-03T06:05:23;230.90;2252.80
54946;DHT22;40846;44.788;20.486;2023-04-03T06:07:49;230.90;2252.80
54946;DHT22;40846;44.788;20.486;2023-04-03T06:10:15;230.90;2252.80
54946;DHT22;40846;44.788;20.486;2023-04-03T06:12:41;230.90;2252.80
54946;DHT22;40846;44.788;20.486;2023-04-03T06:15:07;230.90;2252.80
54946;DHT22;40846;44.788;20.486;2023-04-03T06:17:36;230.90;2252.80
54946;DHT22;40846;44.788;20.486;2023-04-03T06:20:01;230.70;2252.80
54946;DHT22;40846;44.788;20.486;2023-04-03T06:22:29;230.80;2252.80
54946;DHT22;40846;44.788;20.486;2023-04-03T06:24:56;230.80;2252.80
54946;DHT22;40846;44.788;20.486;2023-04-03T06:27:22;230.80;2252.80
54946;DHT22;40846;44.788;20.486;2023-04-03T06:29:48;230.80;2252.80
54946;DHT22;40846;44.788;20.486;2023-04-03T06:32:15;230.70;2252.80
54946;DHT22;40846;44.788;20.486;2023-04-03T06:34:41;230.70;2252.80
54946;DHT22;40846;44.788;20.486;2023-04-03T06:37:17;230.80;2252.80
54946;DHT22;40846;44.788;20.486;2023-04-03T06:39:42;230.80;2252.80
54946;DHT22;40846;44.788;20.486;2023-04-03T06:42:08;230.80;2252.80
54946;DHT22;40846;44.788;20.486;2023-04-03T06:44:34;230.80;2252.80
54946;DHT22;40846;44.788;20.486;2023-04-03T06:47:00;230.80;2252.80
54946;DHT22;40846;44.788;20.486;2023-04-03T06:49:26;230.80;2252.80
54946;DHT22;40846;44.788;20.486;2023-04-03T06:51:51;230.80;2252.80
54946;DHT22;40846;44.788;20.486;2023-04-03T06:54:17;230.80;2252.80
54946;DHT22;40846;44.788;20.486;2023-04-03T06:56:43;230.80;2252.80
54946;DHT22;40846;44.788;20.486;2023-04-03T06:59:11;230.70;2252.80
54946;DHT22;40846;44.788;20.486;2023-04-03T07:01:38;230.60;2252.80
54946;DHT22;40846;44.788;20.486;2023-04-03T07:04:04;230.60;2252.80
54946;DHT22;40846;44.788;20.486;2023-04-03T07:06:29;230.60;2252.80
54946;DHT22;40846;44.788;20.486;2023-04-03T07:08:56;230.50;2252.80
54946;DHT22;40846;44.788;20.486;2023-04-03T07:11:22;230.50;2252.80
54946;DHT22;40846;44.788;20.486;2023-04-03T07:13:48;230.40;2252.80
54946;DHT22;40846;44.788;20.486;2023-04-03T07:16:14;230.40;2252.80
54946;DHT22;40846;44.788;20.486;2023-04-03T07:18:39;230.70;2252.80
54946;DHT22;40846;44.788;20.486;2023-04-03T07:21:05;230.40;2252.80
54946;DHT22;40846;44.788;20.486;2023-04-03T07:23:31;230.50;2252.80
54946;DHT22;40846;44.788;20.486;2023-04-03T07:25:57;230.60;2252.80
54946;DHT22;40846;44.788;20.486;2023-04-03T07:28:23;230.50;2252.80
54946;DHT22;40846;44.788;20.486;2023-04-03T07:30:59;230.60;2252.80
54946;DHT22;40846;44.788;20.486;2023-04-03T07:33:25;230.50;2252.80
54946;DHT22;40846;44.788;20.486;2023-04-03T07:35:51;230.60;2252.80
54946;DHT22;40846;44.788;20.486;2023-04-03T07:38:17;230.70;2252.80
54946;DHT22;40846;44.788;20.486;2023-04-03T07:40:48;230.70;2252.80
54946;DHT22;40846;44.788;20.486;2023-04-03T07:43:15;230.80;2252.80
54946;DHT22;40846;44.788;20.486;2023-04-03T07:45:41;230.80;2252.80
54946;DHT22;40846;44.788;20.486;2023-04-03T07:48:09;230.70;2252.80
54946;DHT22;40846;44.788;20.486;2023-04-03T07:50:35;230.80;2252.80
54946;DHT22;40846;44.788;20.486;2023-04-03T07:53:02;230.80;2252.80
54946;DHT22;40846;44.788;20.486;2023-04-03T07:55:28;230.70;2252.80
54946;DHT22;40846;44.788;20.486;2023-04-03T07:57:54;230.70;2252.80
54946;DHT22;40846;44.788;20.486;2023-04-03T08:00:21;230.70;2252.80
54946;DHT22;40846;44.788;20.486;2023-04-03T08:02:46;230.70;2252.80
54946;DHT22;40846;44.788;20.486;2023-04-03T08:05:19;230.60;2252.80
54946;DHT22;40846;44.788;20.486;2023-04-03T08:07:46;230.60;2252.80
54946;DHT22;40846;44.788;20.486;2023-04-03T08:10:12;230.60;2252.80
54946;DHT22;40846;44.788;20.486;2023-04-03T08:12:38;230.50;2252.80
54946;DHT22;40846;44.788;20.486;2023-04-03T08:15:04;230.60;2252.80
54946;DHT22;40846;44.788;20.486;2023-04-03T08:17:30;230.60;2252.80
54946;DHT22;40846;44.788;20.486;2023-04-03T08:19:56;230.70;2252.80
54946;DHT22;40846;44.788;20.486;2023-04-03T08:22:23;230.60;2252.80
54946;DHT22;40846;44.788;20.486;2023-04-03T08:24:49;230.70;2252.80
54946;DHT22;40846;44.788;20.486;2023-04-03T08:27:15;230.60;2252.80
54946;DHT22;40846;44.788;20.486;2023-04-03T08:29:40;230.50;2252.80
54946;DHT22;40846;44.788;20.486;2023-04-03T08:32:07;230.40;2252.80
54946;DHT22;40846;44.788;20.486;2023-04-03T08:34:33;230.40;2252.80
54946;DHT22;40846;44.788;20.486;2023-04-03T08:37:01;230.50;2252.80
54946;DHT22;40846;44.788;20.486;2023-04-03T08:39:27;230.60;2252.80
54946;DHT22;40846;44.788;20.486;2023-04-03T08:41:55;230.60;2252.80
54946;DHT22;40846;44.788;20.486;2023-04-03T08:44:56;230.70;2252.80
54946;DHT22;40846;44.788;20.486;2023-04-03T08:50:31;230.60;2252.80
54946;DHT22;40846;44.788;20.486;2023-04-03T08:52:59;230.60;2252.80
54946;DHT22;40846;44.788;20.486;2023-04-03T08:58:16;230.40;2252.80
54946;DHT22;40846;44.788;20.486;2023-04-03T09:01:02;230.50;2252.80
54946;DHT22;40846;44.788;20.486;2023-04-03T09:03:41;230.50;2252.80
54946;DHT22;40846;44.788;20.486;2023-04-03T09:11:27;230.50;2252.80
54946;DHT22;40846;44.788;20.486;2023-04-03T09:16:49;230.50;2252.80
54946;DHT22;40846;44.788;20.486;2023-04-03T09:22:01;230.60;2252.80
54946;DHT22;40846;44.788;20.486;2023-04-03T09:24:28;230.70;2252.80
54946;DHT22;40846;44.788;20.486;2023-04-03T09:27:01;230.70;2252.80
54946;DHT22;40846;44.788;20.486;2023-04-03T09:29:29;230.80;2252.80
54946;DHT22;40846;44.788;20.486;2023-04-03T09:31:58;230.80;2252.80
54946;DHT22;40846;44.788;20.486;2023-04-03T09:34:32;230.70;2252.80
54946;DHT22;40846;44.788;20.486;2023-04-03T09:37:02;230.80;2252.80
54946;DHT22;40846;44.788;20.486;2023-04-03T09:39:32;230.90;2252.80
54946;DHT22;40846;44.788;20.486;2023-04-03T09:44:57;231.00;2252.80
54946;DHT22;40846;44.788;20.486;2023-04-03T09:47:28;231.00;2252.80
54946;DHT22;40846;44.788;20.486;2023-04-03T09:52:43;231.10;2252.80
54946;DHT22;40846;44.788;20.486;2023-04-03T09:55:22;231.20;2252.80
54946;DHT22;40846;44.788;20.486;2023-04-03T09:57:54;256.30;2252.80
54946;DHT22;40846;44.788;20.486;2023-04-03T10:00:23;256.20;2252.80
54946;DHT22;40846;44.788;20.486;2023-04-03T10:05:33;256.50;2252.80
54946;DHT22;40846;44.788;20.486;2023-04-03T10:13:53;256.70;2252.80
54946;DHT22;40846;44.788;20.486;2023-04-03T10:16:27;256.60;2252.80
54946;DHT22;40846;44.788;20.486;2023-04-03T10:21:33;256.60;2252.80
54946;DHT22;40846;44.788;20.486;2023-04-03T10:33:01;256.20;2252.80
54946;DHT22;40846;44.788;20.486;2023-04-03T10:40:55;256.30;2252.80
54946;DHT22;40846;44.788;20.486;2023-04-03T10:51:44;256.30;2252.80
54946;DHT22;40846;44.788;20.486;2023-04-03T10:54:33;256.40;2252.80
54946;DHT22;40846;44.788;20.486;2023-04-03T10:57:05;256.70;2252.80
54946;DHT22;40846;44.788;20.486;2023-04-03T11:02:22;281.90;2278.40
54946;DHT22;40846;44.788;20.486;2023-04-03T11:05:02;281.90;2278.40
54946;DHT22;40846;44.788;20.486;2023-04-03T11:07:34;281.90;2278.40
54946;DHT22;40846;44.788;20.486;2023-04-03T11:10:17;282.20;2278.40
54946;DHT22;40846;44.788;20.486;2023-04-03T11:13:03;282.10;2278.40
54946;DHT22;40846;44.788;20.486;2023-04-03T11:15:32;282.20;2278.40
54946;DHT22;40846;44.788;20.486;2023-04-03T11:18:09;282.00;2278.40
54946;DHT22;40846;44.788;20.486;2023-04-03T11:20:37;282.10;2278.40
54946;DHT22;40846;44.788;20.486;2023-04-03T11:23:26;282.20;2278.40
54946;DHT22;40846;44.788;20.486;2023-04-03T11:25:59;282.30;2278.40
54946;DHT22;40846;44.788;20.486;2023-04-03T11:28:30;282.20;2278.40
54946;DHT22;40846;44.788;20.486;2023-04-03T11:36:27;281.90;2278.40
54946;DHT22;40846;44.788;20.486;2023-04-03T11:38:58;281.90;2278.40
54946;DHT22;40846;44.788;20.486;2023-04-03T11:41:28;282.00;2278.40
54946;DHT22;40846;44.788;20.486;2023-04-03T11:44:05;282.00;2278.40
54946;DHT22;40846;44.788;20.486;2023-04-03T12:13:41;282.50;2278.40
54946;DHT22;40846;44.788;20.486;2023-04-03T12:21:23;282.30;2278.40
54946;DHT22;40846;44.788;20.486;2023-04-03T12:29:13;282.50;2278.40
54946;DHT22;40846;44.788;20.486;2023-04-03T12:32:12;282.50;2278.40
54946;DHT22;40846;44.788;20.486;2023-04-03T12:46:11;282.40;2278.40
54946;DHT22;40846;44.788;20.486;2023-04-03T12:48:53;282.50;2278.40
54946;DHT22;40846;44.788;20.486;2023-04-03T12:51:39;307.20;2304.00
54946;DHT22;40846;44.788;20.486;2023-04-03T12:56:50;282.50;2278.40
54946;DHT22;40846;44.788;20.486;2023-04-03T13:01:43;307.20;2304.00
54946;DHT22;40846;44.788;20.486;2023-04-03T13:04:11;307.20;2304.00
54946;DHT22;40846;44.788;20.486;2023-04-03T13:06:40;282.50;2278.40
54946;DHT22;40846;44.788;20.486;2023-04-03T13:09:19;282.50;2278.40
54946;DHT22;40846;44.788;20.486;2023-04-03T13:11:47;282.50;2278.40
54946;DHT22;40846;44.788;20.486;2023-04-03T13:14:22;282.40;2278.40
54946;DHT22;40846;44.788;20.486;2023-04-03T13:17:15;282.40;2278.40
54946;DHT22;40846;44.788;20.486;2023-04-03T13:19:42;282.40;2278.40
54946;DHT22;40846;44.788;20.486;2023-04-03T13:24:44;282.20;2278.40
54946;DHT22;40846;44.788;20.486;2023-04-03T13:27:12;282.30;2278.40
54946;DHT22;40846;44.788;20.486;2023-04-03T13:29:39;282.30;2278.40
54946;DHT22;40846;44.788;20.486;2023-04-03T13:32:06;282.30;2278.40
54946;DHT22;40846;44.788;20.486;2023-04-03T13:34:38;282.40;2278.40
54946;DHT22;40846;44.788;20.486;2023-04-03T13:37:06;282.40;2278.40
54946;DHT22;40846;44.788;20.486;2023-04-03T13:39:38;282.40;2278.40
54946;DHT22;40846;44.788;20.486;2023-04-03T13:42:25;307.20;2304.00
54946;DHT22;40846;44.788;20.486;2023-04-03T13:45:20;307.20;2304.00
54946;DHT22;40846;44.788;20.486;2023-04-03T13:47:50;307.30;2304.00
54946;DHT22;40846;44.788;20.486;2023-04-03T13:50:25;307.30;2304.00
54946;DHT22;40846;44.788;20.486;2023-04-03T14:47:50;307.30;2304.00
54946;DHT22;40846;44.788;20.486;2023-04-03T14:50:25;282.50;2278.40
54946;DHT22;40846;44.788;20.486;2023-04-03T14:52:53;282.40;2278.40
54946;DHT22;40846;44.788;20.486;2023-04-03T14:55:22;282.40;2278.40
54946;DHT22;40846;44.788;20.486;2023-04-03T14:57:48;282.30;2278.40
54946;DHT22;40846;44.788;20.486;2023-04-03T15:00:17;282.40;2278.40
54946;DHT22;40846;44.788;20.486;2023-04-03T15:02:43;282.40;2278.40
54946;DHT22;40846;44.788;20.486;2023-04-03T15:05:11;282.40;2278.40
54946;DHT22;40846;44.788;20.486;2023-04-03T15:07:40;282.40;2278.40
54946;DHT22;40846;44.788;20.486;2023-04-03T15:10:15;282.40;2278.40
54946;DHT22;40846;44.788;20.486;2023-04-03T15:12:41;282.40;2278.40
54946;DHT22;40846;44.788;20.486;2023-04-03T15:15:08;282.30;2278.40
54946;DHT22;40846;44.788;20.486;2023-04-03T15:17:34;282.30;2278.40
54946;DHT22;40846;44.788;20.486;2023-04-03T15:20:02;282.40;2278.40
54946;DHT22;40846;44.788;20.486;2023-04-03T15:22:28;282.30;2278.40
54946;DHT22;40846;44.788;20.486;2023-04-03T15:24:54;282.30;2278.40
54946;DHT22;40846;44.788;20.486;2023-04-03T15:27:19;282.20;2278.40
54946;DHT22;40846;44.788;20.486;2023-04-03T15:29:45;282.20;2278.40
54946;DHT22;40846;44.788;20.486;2023-04-03T15:32:12;282.20;2278.40
54946;DHT22;40846;44.788;20.486;2023-04-03T15:34:38;282.10;2278.40
54946;DHT22;40846;44.788;20.486;2023-04-03T15:37:04;282.00;2278.40
54946;DHT22;40846;44.788;20.486;2023-04-03T15:39:30;282.00;2278.40
54946;DHT22;40846;44.788;20.486;2023-04-03T15:41:56;282.10;2278.40
54946;DHT22;40846;44.788;20.486;2023-04-03T15:44:25;282.10;2278.40
54946;DHT22;40846;44.788;20.486;2023-04-03T15:46:51;282.10;2278.40
54946;DHT22;40846;44.788;20.486;2023-04-03T15:49:18;282.10;2278.40
54946;DHT22;40846;44.788;20.486;2023-04-03T15:51:45;282.10;2278.40
54946;DHT22;40846;44.788;20.486;2023-04-03T15:54:12;282.10;2278.40
54946;DHT22;40846;44.788;20.486;2023-04-03T15:56:38;282.00;2278.40
54946;DHT22;40846;44.788;20.486;2023-04-03T15:59:03;281.90;2278.40
54946;DHT22;40846;44.788;20.486;2023-04-03T16:01:29;281.90;2278.40
54946;DHT22;40846;44.788;20.486;2023-04-03T16:03:55;281.90;2278.40
54946;DHT22;40846;44.788;20.486;2023-04-03T16:06:21;281.90;2278.40
54946;DHT22;40846;44.788;20.486;2023-04-03T16:08:48;281.90;2278.40
54946;DHT22;40846;44.788;20.486;2023-04-03T16:11:14;281.80;2278.40
54946;DHT22;40846;44.788;20.486;2023-04-03T16:13:40;281.70;2278.40
54946;DHT22;40846;44.788;20.486;2023-04-03T16:16:06;281.80;2278.40
54946;DHT22;40846;44.788;20.486;2023-04-03T16:18:34;281.70;2278.40
54946;DHT22;40846;44.788;20.486;2023-04-03T16:21:00;281.70;2278.40
54946;DHT22;40846;44.788;20.486;2023-04-03T16:23:26;281.80;2278.40
54946;DHT22;40846;44.788;20.486;2023-04-03T16:25:52;281.80;2278.40
54946;DHT22;40846;44.788;20.486;2023-04-03T16:28:18;281.70;2278.40
54946;DHT22;40846;44.788;20.486;2023-04-03T16:30:45;281.70;2278.40
54946;DHT22;40846;44.788;20.486;2023-04-03T16:33:12;281.70;2278.40
54946;DHT22;40846;44.788;20.486;2023-04-03T16:35:39;281.70;2278.40
54946;DHT22;40846;44.788;20.486;2023-04-03T16:38:05;281.70;2278.40
54946;DHT22;40846;44.788;20.486;2023-04-03T16:40:31;281.70;2278.40
54946;DHT22;40846;44.788;20.486;2023-04-03T16:42:59;281.70;2278.40
54946;DHT22;40846;44.788;20.486;2023-04-03T16:45:25;281.80;2278.40
54946;DHT22;40846;44.788;20.486;2023-04-03T16:47:50;281.70;2278.40
54946;DHT22;40846;44.788;20.486;2023-04-03T16:50:16;281.70;2278.40
54946;DHT22;40846;44.788;20.486;2023-04-03T16:52:42;281.60;2278.40
54946;DHT22;40846;44.788;20.486;2023-04-03T16:55:08;256.90;2252.80
54946;DHT22;40846;44.788;20.486;2023-04-03T16:57:34;256.90;2252.80
54946;DHT22;40846;44.788;20.486;2023-04-03T16:59:59;256.80;2252.80
54946;DHT22;40846;44.788;20.486;2023-04-03T17:02:25;256.70;2252.80
54946;DHT22;40846;44.788;20.486;2023-04-03T17:04:52;256.70;2252.80
54946;DHT22;40846;44.788;20.486;2023-04-03T17:07:23;256.60;2252.80
54946;DHT22;40846;44.788;20.486;2023-04-03T17:09:49;256.60;2252.80
54946;DHT22;40846;44.788;20.486;2023-04-03T17:12:15;256.50;2252.80
54946;DHT22;40846;44.788;20.486;2023-04-03T17:14:41;256.40;2252.80
54946;DHT22;40846;44.788;20.486;2023-04-03T17:17:08;256.50;2252.80
54946;DHT22;40846;44.788;20.486;2023-04-03T17:19:35;256.50;2252.80
54946;DHT22;40846;44.788;20.486;2023-04-03T17:22:01;256.50;2252.80
54946;DHT22;40846;44.788;20.486;2023-04-03T17:24:27;256.50;2252.80
54946;DHT22;40846;44.788;20.486;2023-04-03T17:26:53;256.50;2252.80
54946;DHT22;40846;44.788;20.486;2023-04-03T17:29:19;256.40;2252.80
54946;DHT22;40846;44.788;20.486;2023-04-03T17:31:45;256.30;2252.80
54946;DHT22;40846;44.788;20.486;2023-04-03T17:34:10;256.20;2252.80
54946;DHT22;40846;44.788;20.486;2023-04-03T17:36:38;256.20;2252.80
54946;DHT22;40846;44.788;20.486;2023-04-03T17:39:04;256.10;2252.80
54946;DHT22;40846;44.788;20.486;2023-04-03T17:41:31;256.10;2252.80
54946;DHT22;40846;44.788;20.486;2023-04-03T17:43:57;256.00;2252.80
54946;DHT22;40846;44.788;20.486;2023-04-03T17:46:24;256.20;2252.80
54946;DHT22;40846;44.788;20.486;2023-04-03T17:48:50;256.30;2252.80
54946;DHT22;40846;44.788;20.486;2023-04-03T17:51:19;231.30;2252.80
54946;DHT22;40846;44.788;20.486;2023-04-03T17:53:46;231.30;2252.80
54946;DHT22;40846;44.788;20.486;2023-04-03T17:56:14;231.30;2252.80
54946;DHT22;40846;44.788;20.486;2023-04-03T17:58:41;231.30;2252.80
54946;DHT22;40846;44.788;20.486;2023-04-03T18:01:09;231.30;2252.80
54946;DHT22;40846;44.788;20.486;2023-04-03T18:03:36;231.30;2252.80
54946;DHT22;40846;44.788;20.486;2023-04-03T18:06:03;231.20;2252.80
54946;DHT22;40846;44.788;20.486;2023-04-03T18:08:32;231.20;2252.80
54946;DHT22;40846;44.788;20.486;2023-04-03T18:10:59;231.20;2252.80
54946;DHT22;40846;44.788;20.486;2023-04-03T18:13:25;231.20;2252.80
54946;DHT22;40846;44.788;20.486;2023-04-03T18:15:51;231.30;2252.80
54946;DHT22;40846;44.788;20.486;2023-04-03T18:18:16;231.20;2252.80
54946;DHT22;40846;44.788;20.486;2023-04-03T18:20:42;231.30;2252.80
54946;DHT22;40846;44.788;20.486;2023-04-03T18:23:08;231.00;2252.80
54946;DHT22;40846;44.788;20.486;2023-04-03T18:25:36;231.00;2252.80
54946;DHT22;40846;44.788;20.486;2023-04-03T18:28:02;230.90;2252.80
54946;DHT22;40846;44.788;20.486;2023-04-03T18:30:31;230.90;2252.80
54946;DHT22;40846;44.788;20.486;2023-04-03T18:32:58;230.90;2252.80
54946;DHT22;40846;44.788;20.486;2023-04-03T18:35:24;230.80;2252.80
54946;DHT22;40846;44.788;20.486;2023-04-03T18:37:50;230.80;2252.80
54946;DHT22;40846;44.788;20.486;2023-04-03T18:40:16;230.80;2252.80
54946;DHT22;40846;44.788;20.486;2023-04-03T18:42:42;230.80;2252.80
54946;DHT22;40846;44.788;20.486;2023-04-03T20:20:35;180.10;2252.80
54946;DHT22;40846;44.788;20.486;2023-04-03T20:23:12;179.80;2252.80
54946;DHT22;40846;44.788;20.486;2023-04-03T20:25:42;179.70;2252.80
54946;DHT22;40846;44.788;20.486;2023-04-03T20:28:09;179.70;2252.80
54946;DHT22;40846;44.788;20.486;2023-04-03T20:30:37;179.70;2252.80
54946;DHT22;40846;44.788;20.486;2023-04-03T20:33:03;179.60;2252.80
54946;DHT22;40846;44.788;20.486;2023-04-03T20:35:31;179.60;2252.80
54946;DHT22;40846;44.788;20.486;2023-04-03T20:37:57;179.80;2252.80
54946;DHT22;40846;44.788;20.486;2023-04-03T20:40:24;179.50;2252.80
54946;DHT22;40846;44.788;20.486;2023-04-03T20:47:47;179.70;2252.80
54946;DHT22;40846;44.788;20.486;2023-04-03T20:50:16;179.30;2252.80
54946;DHT22;40846;44.788;20.486;2023-04-03T20:52:43;179.20;2252.80
54946;DHT22;40846;44.788;20.486;2023-04-03T20:55:09;179.40;2252.80
54946;DHT22;40846;44.788;20.486;2023-04-03T21:00:03;179.30;2252.80
54946;DHT22;40846;44.788;20.486;2023-04-03T21:02:32;154.20;2252.80
54946;DHT22;40846;44.788;20.486;2023-04-03T21:04:59;154.10;2252.80
